createdAt,value
2018-07-12T08:34:45.367Z,29.00
2018-07-12T08:37:26.817Z,29.00
2018-07-12T08:40:08.597Z,29.00
2018-07-12T08:42:50.054Z,29.10
2018-07-12T08:45:34.610Z,29.10
2018-07-12T08:48:16.382Z,29.30
2018-07-12T08:50:57.879Z,29.40
2018-07-12T08:53:39.720Z,29.30
2018-07-12T08:56:21.439Z,29.40
2018-07-12T08:59:03.292Z,29.40
2018-07-12T09:01:44.975Z,29.30
2018-07-12T09:04:26.808Z,29.40
2018-07-12T09:07:08.463Z,29.40
2018-07-12T09:09:50.131Z,29.50
2018-07-12T09:12:32.102Z,29.70
2018-07-12T09:15:14.325Z,30.00
2018-07-12T09:17:55.526Z,30.00
2018-07-12T09:20:37.368Z,30.00
2018-07-12T09:23:18.754Z,30.00
2018-07-12T09:25:59.816Z,30.20
2018-07-12T09:28:41.580Z,30.40
2018-07-12T09:31:23.224Z,30.60
2018-07-12T09:34:05.588Z,30.60
2018-07-12T09:36:47.203Z,30.60
2018-07-12T09:39:28.537Z,30.80
2018-07-12T09:42:10.595Z,31.00
2018-07-12T09:44:52.739Z,31.00
2018-07-12T09:47:33.905Z,30.70
2018-07-12T09:50:15.548Z,30.70
2018-07-12T09:52:57.220Z,30.70
2018-07-12T09:55:39.419Z,30.80
2018-07-12T09:58:21.124Z,31.00
2018-07-12T10:01:07.494Z,30.90
2018-07-12T10:03:53.691Z,30.90
2018-07-12T10:06:39.025Z,31.10
2018-07-12T10:09:25.860Z,31.00
2018-07-12T10:13:13.846Z,31.10
2018-07-12T10:15:59.558Z,31.10
2018-07-12T10:21:22.362Z,31.00
2018-07-12T10:24:04.300Z,31.00
2018-07-12T10:26:46.141Z,31.00
2018-07-12T10:29:27.733Z,30.90
2018-07-12T10:32:09.406Z,30.90
2018-07-12T10:34:50.991Z,30.70
2018-07-12T10:37:32.988Z,30.60
2018-07-12T10:40:15.116Z,30.50
2018-07-12T10:42:57.023Z,30.50
2018-07-12T10:45:38.604Z,30.40
2018-07-12T10:48:20.507Z,30.40
2018-07-12T10:51:02.139Z,30.50
2018-07-12T10:53:43.793Z,30.40
2018-07-12T10:56:25.118Z,30.50
2018-07-12T10:59:06.825Z,30.60
2018-07-12T11:01:48.285Z,30.70
2018-07-12T11:04:30.363Z,30.70
2018-07-12T11:07:11.130Z,30.80
2018-07-12T11:09:51.906Z,30.90
2018-07-12T11:12:33.607Z,31.00
2018-07-12T11:15:15.577Z,30.90
2018-07-12T11:17:57.101Z,31.00
2018-07-12T11:20:38.993Z,30.80
2018-07-12T11:23:20.415Z,30.80
2018-07-12T11:26:01.778Z,30.70
2018-07-12T11:28:43.444Z,30.50
2018-07-12T11:31:24.786Z,30.50
2018-07-12T11:34:06.419Z,30.40
2018-07-12T11:36:47.637Z,30.40
2018-07-12T11:39:29.149Z,30.40
2018-07-12T11:42:10.993Z,30.50
2018-07-12T11:44:52.735Z,30.60
2018-07-12T11:47:34.257Z,30.70
2018-07-12T11:50:15.954Z,30.60
2018-07-12T11:52:56.868Z,30.70
2018-07-12T11:55:38.492Z,30.70
2018-07-12T11:58:20.326Z,30.60
2018-07-12T12:06:25.278Z,30.80
2018-07-12T12:09:07.052Z,30.90
2018-07-12T12:11:48.624Z,30.90
2018-07-12T12:14:30.411Z,30.80
2018-07-12T12:17:12.266Z,30.90
2018-07-12T12:19:53.747Z,30.90
2018-07-12T12:22:35.571Z,30.70
2018-07-12T12:25:17.234Z,30.70
2018-07-12T12:27:58.898Z,30.70
2018-07-12T12:30:40.545Z,30.70
2018-07-12T12:33:22.234Z,30.90
2018-07-12T12:36:04.177Z,31.00
2018-07-12T12:38:45.917Z,30.90
2018-07-12T12:41:27.657Z,30.90
2018-07-12T12:44:08.501Z,30.90
2018-07-12T12:46:49.399Z,30.80
2018-07-12T12:49:31.055Z,30.90
2018-07-12T12:52:12.023Z,30.90
2018-07-12T12:54:53.070Z,30.80
2018-07-12T12:57:34.812Z,30.70
2018-07-12T13:00:15.549Z,30.70
2018-07-12T13:02:56.288Z,30.80
2018-07-12T13:05:38.028Z,30.70
2018-07-12T13:13:42.132Z,30.80
2018-07-12T13:16:23.746Z,31.00
2018-07-12T13:19:04.450Z,31.10
2018-07-12T13:21:45.446Z,31.10
2018-07-12T13:24:27.166Z,31.20
2018-07-12T13:27:08.843Z,31.20
2018-07-12T13:32:32.238Z,31.20
2018-07-12T13:35:13.765Z,31.20
2018-07-12T13:37:54.746Z,31.20
2018-07-12T13:40:36.340Z,31.10
2018-07-12T13:43:18.075Z,31.10
2018-07-12T13:45:59.656Z,31.20
2018-07-12T13:48:41.427Z,31.10
2018-07-12T13:51:23.088Z,31.10
2018-07-12T13:54:05.016Z,31.10
2018-07-12T13:56:47.043Z,31.10
2018-07-12T13:59:28.491Z,31.10
2018-07-12T14:02:10.294Z,31.10
2018-07-12T14:04:51.956Z,31.10
2018-07-12T14:07:33.695Z,31.20
2018-07-12T14:10:15.557Z,31.10
2018-07-12T14:12:56.475Z,31.10
2018-07-12T14:15:38.281Z,31.10
2018-07-12T14:18:20.034Z,31.10
2018-07-12T14:21:01.746Z,31.20
2018-07-12T14:26:25.270Z,31.30
2018-07-12T14:29:06.364Z,31.20
2018-07-12T14:34:29.077Z,31.20
2018-07-12T14:37:11.055Z,31.10
2018-07-12T14:39:52.411Z,31.00
2018-07-12T14:42:33.932Z,31.00
2018-07-12T14:45:15.551Z,30.90
2018-07-12T14:47:57.012Z,30.90
2018-07-12T14:50:39.679Z,30.80
2018-07-12T14:53:21.479Z,30.80
2018-07-12T14:56:03.004Z,30.80
2018-07-12T15:01:25.748Z,30.80
2018-07-12T15:04:07.394Z,30.70
2018-07-12T15:06:48.336Z,30.70
2018-07-12T15:09:29.989Z,30.60
2018-07-12T15:12:11.556Z,30.60
2018-07-12T15:14:53.256Z,30.50
2018-07-12T15:17:35.056Z,30.50
2018-07-12T15:20:16.621Z,30.40
2018-07-12T15:22:58.159Z,30.30
2018-07-12T15:25:39.999Z,30.30
2018-07-12T15:28:21.837Z,30.30
2018-07-12T15:31:03.615Z,30.20
2018-07-12T15:33:45.167Z,30.20
2018-07-12T15:36:25.879Z,30.10
2018-07-12T15:39:08.242Z,30.10
2018-07-12T15:41:49.542Z,30.00
2018-07-12T15:44:31.202Z,30.00
2018-07-12T15:47:12.756Z,29.90
2018-07-12T15:49:53.468Z,29.80
2018-07-12T15:52:34.579Z,29.80
2018-07-12T15:55:16.198Z,29.80
2018-07-12T15:57:57.871Z,29.70
2018-07-12T16:00:39.729Z,29.50
2018-07-12T16:03:21.461Z,29.40
2018-07-12T16:06:03.332Z,29.40
2018-07-12T16:08:44.939Z,29.40
2018-07-12T16:11:26.745Z,29.20
2018-07-12T16:14:08.544Z,29.10
2018-07-12T16:16:49.223Z,29.00
2018-07-12T16:19:29.945Z,29.00
2018-07-12T16:22:11.015Z,29.00
2018-07-12T16:24:52.755Z,28.90
2018-07-12T16:27:34.655Z,28.70
2018-07-12T16:30:16.259Z,28.50
2018-07-12T16:32:58.757Z,28.50
2018-07-12T16:35:39.634Z,28.40
2018-07-12T16:38:20.370Z,28.40
2018-07-12T16:41:01.971Z,28.40
2018-07-12T16:43:42.883Z,28.40
2018-07-12T17:17:36.372Z,27.50
2018-07-12T17:20:18.329Z,27.50
2018-07-12T17:22:59.974Z,27.50
2018-07-12T17:31:55.194Z,27.30
2018-07-12T17:34:36.033Z,27.20
2018-07-12T17:37:17.693Z,27.20
2018-07-12T17:39:59.485Z,27.10
2018-07-12T17:42:41.208Z,27.10
2018-07-12T17:45:22.961Z,27.00
2018-07-12T17:48:04.590Z,27.00
2018-07-12T17:50:46.515Z,27.00
2018-07-12T17:53:28.070Z,26.90
2018-07-12T17:56:09.904Z,26.90
2018-07-12T17:58:51.642Z,26.80
2018-07-12T18:01:32.629Z,26.80
2018-07-12T18:04:14.336Z,26.80
2018-07-12T18:06:55.954Z,26.80
2018-07-12T18:09:37.706Z,26.70
2018-07-12T18:12:19.399Z,26.70
2018-07-12T18:15:01.248Z,26.70
2018-07-12T18:17:42.944Z,26.60
2018-07-12T18:20:24.573Z,26.60
2018-07-12T18:23:07.564Z,26.60
2018-07-12T18:25:48.715Z,26.50
2018-07-12T18:28:29.497Z,26.50
2018-07-12T18:31:11.220Z,26.40
2018-07-12T18:33:53.915Z,26.40
2018-07-12T18:36:35.529Z,26.40
2018-07-12T18:39:16.416Z,26.40
2018-07-12T18:41:58.097Z,26.40
2018-07-12T18:44:39.947Z,26.30
2018-07-12T18:52:44.151Z,26.20
2018-07-12T18:55:25.859Z,26.10
2018-07-12T18:58:07.592Z,26.10
2018-07-12T19:00:49.377Z,26.10
2018-07-12T19:03:31.011Z,26.10
2018-07-12T19:06:12.913Z,26.00
2018-07-12T19:08:53.789Z,26.00
2018-07-12T19:11:35.649Z,26.00
2018-07-12T19:14:16.434Z,26.00
2018-07-12T19:16:58.085Z,26.00
2018-07-12T19:19:38.964Z,26.00
2018-07-12T19:22:20.732Z,25.90
2018-07-12T19:25:02.566Z,25.90
2018-07-12T19:27:44.176Z,25.80
2018-07-12T19:30:25.901Z,25.90
2018-07-12T19:33:08.084Z,25.80
2018-07-12T19:35:49.104Z,25.80
2018-07-12T19:38:29.805Z,25.80
2018-07-12T19:41:10.686Z,25.70
2018-07-12T19:43:52.684Z,25.70
2018-07-12T19:49:15.682Z,25.70
2018-07-12T19:51:57.716Z,25.70
2018-07-12T19:54:39.249Z,25.70
2018-07-12T19:57:20.926Z,25.60
2018-07-12T20:00:02.601Z,25.70
2018-07-12T20:02:44.050Z,25.60
2018-07-12T20:05:25.763Z,25.60
2018-07-12T20:08:07.313Z,25.60
2018-07-12T20:10:48.081Z,25.60
2018-07-12T20:13:28.937Z,25.60
2018-07-12T20:16:10.616Z,25.60
2018-07-12T20:18:51.519Z,25.70
2018-07-12T20:21:33.345Z,25.60
2018-07-12T20:24:14.400Z,25.70
2018-07-12T20:26:57.004Z,25.60
2018-07-12T20:29:39.963Z,25.50
2018-07-12T20:32:21.551Z,25.50
2018-07-12T20:35:02.901Z,25.40
2018-07-12T20:37:43.827Z,25.40
2018-07-12T20:40:25.476Z,25.40
2018-07-12T20:43:06.322Z,25.40
2018-07-12T20:45:47.585Z,25.40
2018-07-12T20:48:28.791Z,25.40
2018-07-12T20:51:10.373Z,25.40
2018-07-12T20:53:52.255Z,25.40
2018-07-12T20:56:34.134Z,25.40
2018-07-12T20:59:15.674Z,25.40
2018-07-12T21:01:57.483Z,25.30
2018-07-12T21:04:39.335Z,25.30
2018-07-12T21:07:20.416Z,25.30
2018-07-12T21:10:01.866Z,25.20
2018-07-12T21:12:44.238Z,25.20
2018-07-12T21:15:26.404Z,25.30
2018-07-12T21:18:08.175Z,25.30
2018-07-12T21:20:49.869Z,25.20
2018-07-12T21:23:30.796Z,25.20
2018-07-12T21:26:12.553Z,25.20
2018-07-12T21:28:54.191Z,25.20
2018-07-12T21:31:35.088Z,25.20
2018-07-12T21:34:16.019Z,25.20
2018-07-12T21:36:57.788Z,25.20
2018-07-12T21:39:39.696Z,25.30
2018-07-12T21:42:21.226Z,25.30
2018-07-12T21:45:02.061Z,25.10
2018-07-12T21:47:43.084Z,25.20
2018-07-12T21:50:24.018Z,25.10
2018-07-12T21:53:07.693Z,25.20
2018-07-12T21:55:49.350Z,25.10
2018-07-12T21:58:31.017Z,25.10
2018-07-12T22:01:11.765Z,25.10
2018-07-12T22:03:53.511Z,25.10
2018-07-12T22:06:35.573Z,25.10
2018-07-12T22:09:16.950Z,25.10
2018-07-12T22:11:58.639Z,25.10
2018-07-12T22:14:40.398Z,25.10
2018-07-12T22:17:22.963Z,25.10
2018-07-12T22:20:03.856Z,25.10
2018-07-12T22:22:45.609Z,25.10
2018-07-12T22:25:27.232Z,25.10
2018-07-12T22:28:08.187Z,25.10
2018-07-12T22:30:49.793Z,25.10
2018-07-12T22:33:31.383Z,25.10
2018-07-12T22:36:12.581Z,25.10
2018-07-12T22:38:54.142Z,25.10
2018-07-12T22:41:34.895Z,25.10
2018-07-12T22:44:16.536Z,25.20
2018-07-12T22:46:57.278Z,25.20
2018-07-12T22:49:39.051Z,25.10
2018-07-12T22:52:22.894Z,25.10
2018-07-12T22:55:04.573Z,25.10
2018-07-12T22:57:48.231Z,25.10
2018-07-12T23:00:29.120Z,25.10
2018-07-12T23:03:10.907Z,25.10
2018-07-12T23:05:52.897Z,25.10
2018-07-12T23:08:33.772Z,25.10
2018-07-12T23:11:15.431Z,25.10
2018-07-12T23:13:57.149Z,25.10
2018-07-12T23:16:38.953Z,25.20
2018-07-12T23:19:19.944Z,25.20
2018-07-12T23:22:01.649Z,25.20
2018-07-12T23:24:43.380Z,25.20
2018-07-12T23:27:24.308Z,25.10
2018-07-12T23:30:05.116Z,25.10
2018-07-12T23:32:46.776Z,25.10
2018-07-12T23:35:28.511Z,25.10
2018-07-12T23:38:09.344Z,25.10
2018-07-12T23:40:50.312Z,25.00
2018-07-12T23:43:32.162Z,25.00
2018-07-12T23:46:14.999Z,25.00
2018-07-12T23:48:55.844Z,24.90
2018-07-12T23:51:37.498Z,24.90
2018-07-12T23:54:18.372Z,24.90
2018-07-12T23:56:59.935Z,24.90
2018-07-12T23:59:41.786Z,24.90
